Terminal Aerodrome Forecast
Issued by NWS

Home | Current Version | Previous Version | Text Only | Print | Product List | Glossary On
Versions: 1 2 3 4 5 6 7 8 9 10 11 12 13 14 15 16 17 18 19 20 21 22
158
FTUS45 KRIW 241122
TAFRKS
TAF
KRKS 241122Z 2412/2512 13007KT P6SM SCT110
     FM241800 17011KT P6SM VCTS SCT080CB
     FM242000 19018G28KT P6SM VCTS SCT100CB
     FM250000 22014G22KT P6SM VCTS SCT090CB
     FM250400 VRB06KT P6SM FEW090=

USA.gov is the U.S. government's official web portal to all federal, state and local government web resources and services.